PRIVATE WETTERSTATION BILLIGHEIM-ALLFELD                       ZURCK
Wetterdaten: Dienstag, 04.01.2022
Datum Zeit Temp. A. Temp. A. min Temp. A. max Feuchte A. Luftdruck Regen Wind Richtung Richtung Sonnenschein ET Solar Taupunkt Windchill Windben Empfang
04.01.2022 00:00 7,8 C 7,8 C 7,9 C 92 % 1006,3 hPa 0,2 l/m 1,6 km/h (1 Bft) S-SO 157 0 min 0,000 mm 0 W/m 6,6 C 7,8 C 8,0 km/h (2 Bft) 100 %
04.01.2022 00:10 7,8 C 7,8 C 7,8 C 92 % 1005,9 hPa 0,2 l/m 3,2 km/h (1 Bft) S-SO 157 0 min 0,000 mm 0 W/m 6,6 C 7,8 C 16,1 km/h (3 Bft) 100 %
04.01.2022 00:20 7,7 C 7,7 C 7,8 C 92 % 1005,8 hPa 0,2 l/m 3,2 km/h (1 Bft) S-SO 157 0 min 0,000 mm 0 W/m 6,5 C 7,7 C 12,9 km/h (3 Bft) 100 %
04.01.2022 00:30 7,6 C 7,6 C 7,7 C 92 % 1005,5 hPa 0,0 l/m 3,2 km/h (1 Bft) S-SO 157 0 min 0,000 mm 0 W/m 6,4 C 7,6 C 16,1 km/h (3 Bft) 91 %
04.01.2022 00:40 7,6 C 7,6 C 7,6 C 92 % 1005,3 hPa 0,0 l/m 6,4 km/h (2 Bft) S-SO 157 0 min 0,000 mm 0 W/m 6,4 C 7,6 C 19,3 km/h (3 Bft) 100 %
04.01.2022 00:50 7,6 C 7,6 C 7,6 C 92 % 1005,0 hPa 0,2 l/m 8,0 km/h (2 Bft) S-SO 157 0 min 0,000 mm 0 W/m 6,4 C 6,3 C 20,9 km/h (4 Bft) 100 %
04.01.2022 01:00 7,6 C 7,6 C 7,7 C 92 % 1005,0 hPa 0,0 l/m 6,4 km/h (2 Bft) S-SO 157 0 min 0,000 mm 0 W/m 6,4 C 7,6 C 17,7 km/h (3 Bft) 100 %
04.01.2022 01:10 7,7 C 7,6 C 7,7 C 92 % 1004,8 hPa 0,1 l/m 4,8 km/h (1 Bft) S-SO 157 0 min 0,000 mm 0 W/m 6,5 C 7,7 C 17,7 km/h (3 Bft) 100 %
04.01.2022 01:20 7,7 C 7,7 C 7,7 C 92 % 1004,6 hPa 0,0 l/m 4,8 km/h (1 Bft) S 180 0 min 0,000 mm 0 W/m 6,5 C 7,7 C 14,5 km/h (3 Bft) 100 %
04.01.2022 01:30 7,8 C 7,7 C 7,8 C 92 % 1004,5 hPa 0,0 l/m 6,4 km/h (2 Bft) S-SO 157 0 min 0,000 mm 0 W/m 6,6 C 7,8 C 14,5 km/h (3 Bft) 100 %
04.01.2022 01:40 7,9 C 7,7 C 7,9 C 92 % 1004,4 hPa 0,2 l/m 4,8 km/h (1 Bft) S 180 0 min 0,000 mm 0 W/m 6,7 C 7,9 C 17,7 km/h (3 Bft) 100 %
04.01.2022 01:50 8,0 C 7,9 C 8,0 C 91 % 1004,2 hPa 0,0 l/m 4,8 km/h (1 Bft) S 180 0 min 0,000 mm 0 W/m 6,6 C 8,0 C 17,7 km/h (3 Bft) 100 %
04.01.2022 02:00 8,1 C 8,0 C 8,1 C 91 % 1004,0 hPa 0,0 l/m 4,8 km/h (1 Bft) S 180 0 min 0,000 mm 0 W/m 6,7 C 8,1 C 14,5 km/h (3 Bft) 100 %
04.01.2022 02:10 8,2 C 8,1 C 8,2 C 91 % 1003,8 hPa 0,1 l/m 4,8 km/h (1 Bft) S-SO 157 0 min 0,000 mm 0 W/m 6,8 C 8,2 C 12,9 km/h (3 Bft) 100 %
04.01.2022 02:20 8,2 C 8,2 C 8,2 C 92 % 1003,6 hPa 0,2 l/m 4,8 km/h (1 Bft) S 180 0 min 0,000 mm 0 W/m 7,0 C 8,2 C 19,3 km/h (3 Bft) 100 %
04.01.2022 02:30 8,3 C 8,2 C 8,3 C 92 % 1003,5 hPa 0,0 l/m 4,8 km/h (1 Bft) S 180 0 min 0,000 mm 0 W/m 7,1 C 8,3 C 16,1 km/h (3 Bft) 100 %
04.01.2022 02:40 8,5 C 8,3 C 8,5 C 91 % 1003,3 hPa 0,0 l/m 6,4 km/h (2 Bft) S-SW 202 0 min 0,000 mm 0 W/m 7,1 C 8,5 C 20,9 km/h (4 Bft) 100 %
04.01.2022 02:50 8,6 C 8,5 C 8,6 C 92 % 1003,1 hPa 0,1 l/m 4,8 km/h (1 Bft) S-SW 202 0 min 0,000 mm 0 W/m 7,4 C 8,6 C 16,1 km/h (3 Bft) 100 %
04.01.2022 03:00 8,6 C 8,6 C 8,6 C 92 % 1003,0 hPa 0,0 l/m 6,4 km/h (2 Bft) S-SW 202 0 min 0,000 mm 0 W/m 7,4 C 8,6 C 17,7 km/h (3 Bft) 100 %
04.01.2022 03:10 8,7 C 8,6 C 8,7 C 92 % 1002,8 hPa 0,2 l/m 8,0 km/h (2 Bft) S-SW 202 0 min 0,000 mm 0 W/m 7,5 C 7,5 C 20,9 km/h (4 Bft) 90 %
04.01.2022 03:20 8,7 C 8,7 C 8,8 C 92 % 1002,5 hPa 0,1 l/m 8,0 km/h (2 Bft) S-SW 202 0 min 0,000 mm 0 W/m 7,5 C 7,5 C 19,3 km/h (3 Bft) 100 %
04.01.2022 03:30 8,8 C 8,7 C 8,8 C 92 % 1002,3 hPa 0,2 l/m 8,0 km/h (2 Bft) S-SW 202 0 min 0,000 mm 0 W/m 7,6 C 7,6 C 20,9 km/h (4 Bft) 100 %
04.01.2022 03:40 8,8 C 8,8 C 8,8 C 92 % 1002,1 hPa 0,1 l/m 8,0 km/h (2 Bft) S-SW 202 0 min 0,000 mm 0 W/m 7,6 C 7,6 C 19,3 km/h (3 Bft) 100 %
04.01.2022 03:50 8,8 C 8,8 C 8,8 C 92 % 1001,7 hPa 0,2 l/m 6,4 km/h (2 Bft) S-SW 202 0 min 0,000 mm 0 W/m 7,6 C 8,8 C 16,1 km/h (3 Bft) 100 %
04.01.2022 04:00 8,7 C 8,7 C 8,8 C 92 % 1001,5 hPa 0,2 l/m 4,8 km/h (1 Bft) S 180 0 min 0,000 mm 0 W/m 7,5 C 8,7 C 12,9 km/h (3 Bft) 100 %
04.01.2022 04:10 8,5 C 8,5 C 8,7 C 92 % 1001,5 hPa 0,2 l/m 3,2 km/h (1 Bft) S 180 0 min 0,000 mm 0 W/m 7,3 C 8,5 C 11,3 km/h (2 Bft) 100 %
04.01.2022 04:20 8,4 C 8,4 C 8,5 C 92 % 1001,2 hPa 0,2 l/m 4,8 km/h (1 Bft) S-SW 202 0 min 0,000 mm 0 W/m 7,2 C 8,4 C 16,1 km/h (3 Bft) 100 %
04.01.2022 04:30 8,4 C 8,4 C 8,4 C 92 % 1001,1 hPa 0,2 l/m 4,8 km/h (1 Bft) S 180 0 min 0,000 mm 0 W/m 7,2 C 8,4 C 14,5 km/h (3 Bft) 100 %
04.01.2022 04:40 8,3 C 8,3 C 8,4 C 92 % 1000,9 hPa 0,2 l/m 4,8 km/h (1 Bft) S 180 0 min 0,000 mm 0 W/m 7,1 C 8,3 C 14,5 km/h (3 Bft) 100 %
04.01.2022 04:50 8,3 C 8,3 C 8,3 C 92 % 1000,7 hPa 0,4 l/m 3,2 km/h (1 Bft) S-SO 157 0 min 0,000 mm 0 W/m 7,1 C 8,3 C 9,7 km/h (2 Bft) 100 %
04.01.2022 05:00 8,3 C 8,3 C 8,3 C 92 % 1000,5 hPa 0,4 l/m 3,2 km/h (1 Bft) S 180 0 min 0,000 mm 0 W/m 7,1 C 8,3 C 11,3 km/h (2 Bft) 100 %
04.01.2022 05:10 8,3 C 8,3 C 8,3 C 92 % 1000,2 hPa 0,4 l/m 3,2 km/h (1 Bft) S 180 0 min 0,000 mm 0 W/m 7,1 C 8,3 C 14,5 km/h (3 Bft) 100 %
04.01.2022 05:20 8,3 C 8,3 C 8,3 C 92 % 1000,0 hPa 0,4 l/m 3,2 km/h (1 Bft) S 180 0 min 0,000 mm 0 W/m 7,1 C 8,3 C 14,5 km/h (3 Bft) 100 %
04.01.2022 05:30 8,2 C 8,2 C 8,3 C 92 % 999,9 hPa 0,4 l/m 3,2 km/h (1 Bft) S 180 0 min 0,000 mm 0 W/m 7,0 C 8,2 C 16,1 km/h (3 Bft) 100 %
04.01.2022 05:40 8,2 C 8,2 C 8,2 C 92 % 999,7 hPa 0,6 l/m 3,2 km/h (1 Bft) S 180 0 min 0,000 mm 0 W/m 7,0 C 8,2 C 14,5 km/h (3 Bft) 99 %
04.01.2022 05:50 8,2 C 8,2 C 8,2 C 92 % 999,5 hPa 0,2 l/m 3,2 km/h (1 Bft) S 180 0 min 0,000 mm 0 W/m 7,0 C 8,2 C 16,1 km/h (3 Bft) 91 %
04.01.2022 06:00 8,2 C 8,2 C 8,2 C 92 % 999,4 hPa 0,4 l/m 3,2 km/h (1 Bft) S 180 0 min 0,000 mm 0 W/m 7,0 C 8,2 C 14,5 km/h (3 Bft) 100 %
04.01.2022 06:10 8,2 C 8,2 C 8,2 C 92 % 999,1 hPa 0,6 l/m 3,2 km/h (1 Bft) S 180 0 min 0,000 mm 0 W/m 7,0 C 8,2 C 16,1 km/h (3 Bft) 100 %
04.01.2022 06:20 8,2 C 8,1 C 8,2 C 92 % 999,0 hPa 0,6 l/m 4,8 km/h (1 Bft) S-SO 157 0 min 0,000 mm 0 W/m 7,0 C 8,2 C 14,5 km/h (3 Bft) 100 %
04.01.2022 06:30 8,2 C 8,1 C 8,2 C 92 % 998,6 hPa 0,4 l/m 4,8 km/h (1 Bft) S-SO 157 0 min 0,000 mm 0 W/m 7,0 C 8,2 C 14,5 km/h (3 Bft) 100 %
04.01.2022 06:40 8,2 C 8,1 C 8,2 C 92 % 998,4 hPa 0,4 l/m 4,8 km/h (1 Bft) S 180 0 min 0,000 mm 0 W/m 7,0 C 8,2 C 17,7 km/h (3 Bft) 100 %
04.01.2022 06:50 8,2 C 8,1 C 8,2 C 92 % 998,3 hPa 0,2 l/m 8,0 km/h (2 Bft) S-SO 157 0 min 0,000 mm 0 W/m 7,0 C 7,0 C 17,7 km/h (3 Bft) 100 %
04.01.2022 07:00 8,2 C 8,2 C 8,2 C 92 % 998,3 hPa 0,2 l/m 8,0 km/h (2 Bft) S-SO 157 0 min 0,000 mm 0 W/m 7,0 C 7,0 C 19,3 km/h (3 Bft) 100 %
04.01.2022 07:10 8,2 C 8,2 C 8,2 C 92 % 998,0 hPa 0,4 l/m 6,4 km/h (2 Bft) S 180 0 min 0,000 mm 0 W/m 7,0 C 8,2 C 17,7 km/h (3 Bft) 100 %
04.01.2022 07:20 8,2 C 8,2 C 8,2 C 92 % 997,8 hPa 0,0 l/m 4,8 km/h (1 Bft) S 180 0 min 0,000 mm 0 W/m 7,0 C 8,2 C 20,9 km/h (4 Bft) 100 %
04.01.2022 07:30 8,2 C 8,2 C 8,2 C 92 % 997,6 hPa 0,2 l/m 4,8 km/h (1 Bft) S-SO 157 0 min 0,000 mm 0 W/m 7,0 C 8,2 C 14,5 km/h (3 Bft) 100 %
04.01.2022 07:40 8,2 C 8,2 C 8,2 C 92 % 997,4 hPa 0,2 l/m 4,8 km/h (1 Bft) S 180 0 min 0,000 mm 0 W/m 7,0 C 8,2 C 14,5 km/h (3 Bft) 100 %
04.01.2022 07:50 8,2 C 8,2 C 8,2 C 92 % 997,4 hPa 0,2 l/m 4,8 km/h (1 Bft) S-SW 202 0 min 0,000 mm 0 W/m 7,0 C 8,2 C 17,7 km/h (3 Bft) 100 %
04.01.2022 08:00 8,2 C 8,2 C 8,2 C 92 % 997,3 hPa 0,2 l/m 6,4 km/h (2 Bft) S 180 0 min 0,000 mm 0 W/m 7,0 C 8,2 C 16,1 km/h (3 Bft) 100 %
04.01.2022 08:10 8,3 C 8,2 C 8,3 C 92 % 997,1 hPa 0,0 l/m 4,8 km/h (1 Bft) S 180 0 min 0,000 mm 0 W/m 7,1 C 8,3 C 16,1 km/h (3 Bft) 100 %
04.01.2022 08:20 8,3 C 8,3 C 8,3 C 92 % 997,0 hPa 0,4 l/m 6,4 km/h (2 Bft) S 180 0 min 0,000 mm 0 W/m 7,1 C 8,3 C 17,7 km/h (3 Bft) 100 %
04.01.2022 08:30 8,3 C 8,3 C 8,3 C 92 % 996,9 hPa 0,4 l/m 4,8 km/h (1 Bft) S 180 0 min 0,000 mm 0 W/m 7,1 C 8,3 C 14,5 km/h (3 Bft) 99 %
04.01.2022 08:40 8,4 C 8,3 C 8,4 C 92 % 996,8 hPa 0,2 l/m 3,2 km/h (1 Bft) S 180 0 min 0,000 mm 0 W/m 7,2 C 8,4 C 14,5 km/h (3 Bft) 100 %
04.01.2022 08:50 8,4 C 8,3 C 8,4 C 92 % 996,8 hPa 0,4 l/m 4,8 km/h (1 Bft) S 180 0 min 0,000 mm 0 W/m 7,2 C 8,4 C 16,1 km/h (3 Bft) 100 %
04.01.2022 09:00 8,4 C 8,4 C 8,4 C 92 % 996,6 hPa 0,4 l/m 4,8 km/h (1 Bft) S 180 0 min 0,000 mm 0 W/m 7,2 C 8,4 C 14,5 km/h (3 Bft) 100 %
04.01.2022 09:10 8,5 C 8,4 C 8,5 C 92 % 996,5 hPa 0,6 l/m 1,6 km/h (1 Bft) S-SO 157 0 min 0,000 mm 0 W/m 7,3 C 8,5 C 11,3 km/h (2 Bft) 100 %
04.01.2022 09:20 8,6 C 8,5 C 8,6 C 92 % 996,5 hPa 0,4 l/m 3,2 km/h (1 Bft) S 180 0 min 0,000 mm 7 W/m 7,4 C 8,6 C 11,3 km/h (2 Bft) 100 %
04.01.2022 09:30 8,6 C 8,6 C 8,6 C 92 % 996,3 hPa 0,6 l/m 4,8 km/h (1 Bft) S 180 0 min 0,000 mm 9 W/m 7,4 C 8,6 C 11,3 km/h (2 Bft) 100 %
04.01.2022 09:40 8,7 C 8,6 C 8,7 C 92 % 996,2 hPa 0,2 l/m 3,2 km/h (1 Bft) S 180 0 min 0,000 mm 11 W/m 7,5 C 8,7 C 12,9 km/h (3 Bft) 100 %
04.01.2022 09:50 8,7 C 8,7 C 8,7 C 92 % 995,9 hPa 0,6 l/m 4,8 km/h (1 Bft) S 180 0 min 0,000 mm 11 W/m 7,5 C 8,7 C 9,7 km/h (2 Bft) 100 %
04.01.2022 10:00 8,8 C 8,7 C 8,8 C 92 % 995,9 hPa 0,2 l/m 6,4 km/h (2 Bft) S-SW 202 0 min 0,000 mm 16 W/m 7,6 C 8,8 C 22,5 km/h (4 Bft) 100 %
04.01.2022 10:10 8,9 C 8,8 C 8,9 C 92 % 995,7 hPa 0,4 l/m 4,8 km/h (1 Bft) S-SW 202 0 min 0,000 mm 14 W/m 7,7 C 8,9 C 19,3 km/h (3 Bft) 100 %
04.01.2022 10:20 9,1 C 8,9 C 9,1 C 92 % 995,6 hPa 0,4 l/m 6,4 km/h (2 Bft) S-SO 157 0 min 0,000 mm 16 W/m 7,9 C 9,1 C 19,3 km/h (3 Bft) 99 %
04.01.2022 10:40 9,1 C 8,9 C 9,1 C 92 % 995,3 hPa 1,0 l/m 4,0 km/h (1 Bft) S-SO 163 0 min 0,000 mm 11 W/m 7,9 C 9,1 C 14,5 km/h (3 Bft) 100 %
04.01.2022 10:50 9,1 C 9,1 C 9,1 C 92 % 995,3 hPa 0,4 l/m 6,9 km/h (2 Bft) S 180 0 min 0,000 mm 11 W/m 7,9 C 8,7 C 17,7 km/h (3 Bft) 100 %
04.01.2022 11:00 9,2 C 9,1 C 9,2 C 92 % 995,2 hPa 0,0 l/m 3,9 km/h (1 Bft) S 184 0 min 0,000 mm 9 W/m 8,0 C 9,2 C 12,9 km/h (3 Bft) 100 %
04.01.2022 11:10 9,3 C 9,2 C 9,3 C 92 % 995,0 hPa 0,3 l/m 6,2 km/h (2 Bft) S 185 0 min 0,000 mm 11 W/m 8,1 C 9,3 C 24,1 km/h (4 Bft) 100 %
04.01.2022 11:20 9,4 C 9,3 C 9,4 C 92 % 995,0 hPa 0,4 l/m 7,4 km/h (2 Bft) S 184 0 min 0,000 mm 14 W/m 8,2 C 8,7 C 22,5 km/h (4 Bft) 100 %
04.01.2022 11:30 9,8 C 9,4 C 9,8 C 92 % 994,8 hPa 0,6 l/m 14,5 km/h (3 Bft) SW 215 0 min 0,000 mm 23 W/m 8,6 C 5,1 C 30,6 km/h (5 Bft) 100 %
04.01.2022 11:40 9,9 C 9,8 C 9,9 C 92 % 994,6 hPa 0,6 l/m 16,7 km/h (3 Bft) SW 219 0 min 0,000 mm 16 W/m 8,7 C 4,3 C 33,8 km/h (5 Bft) 100 %
04.01.2022 11:50 10,1 C 9,9 C 10,1 C 92 % 994,6 hPa 0,4 l/m 18,9 km/h (3 Bft) S-SW 200 0 min 0,000 mm 18 W/m 8,9 C 3,8 C 33,8 km/h (5 Bft) 100 %
04.01.2022 12:00 10,1 C 10,1 C 10,1 C 92 % 994,7 hPa 0,6 l/m 17,8 km/h (3 Bft) SW 227 0 min 0,000 mm 14 W/m 8,9 C 4,2 C 40,2 km/h (6 Bft) 100 %
04.01.2022 12:10 10,2 C 10,1 C 10,2 C 92 % 994,6 hPa 0,8 l/m 18,7 km/h (3 Bft) W-SW 250 0 min 0,025 mm 18 W/m 9,0 C 4,0 C 41,8 km/h (6 Bft) 99 %
04.01.2022 12:20 10,2 C 10,2 C 10,2 C 92 % 994,4 hPa 0,4 l/m 15,4 km/h (3 Bft) S-SW 213 0 min 0,000 mm 21 W/m 9,0 C 5,2 C 37,0 km/h (5 Bft) 100 %
04.01.2022 12:30 10,3 C 10,2 C 10,3 C 92 % 994,3 hPa 0,6 l/m 18,4 km/h (3 Bft) SW 222 0 min 0,000 mm 28 W/m 9,1 C 4,2 C 33,8 km/h (5 Bft) 100 %
04.01.2022 12:40 10,3 C 10,2 C 10,3 C 92 % 994,2 hPa 0,4 l/m 16,8 km/h (3 Bft) SW 229 0 min 0,000 mm 21 W/m 9,1 C 4,8 C 46,7 km/h (6 Bft) 100 %
04.01.2022 12:50 10,3 C 10,3 C 10,3 C 92 % 994,0 hPa 0,4 l/m 17,9 km/h (3 Bft) S-SW 209 0 min 0,000 mm 21 W/m 9,1 C 4,4 C 37,0 km/h (5 Bft) 100 %
04.01.2022 13:00 10,3 C 10,3 C 10,3 C 92 % 994,0 hPa 0,2 l/m 17,5 km/h (3 Bft) SW 219 0 min 0,026 mm 23 W/m 9,1 C 4,5 C 48,3 km/h (6 Bft) 100 %
04.01.2022 13:10 10,4 C 10,3 C 10,4 C 92 % 994,1 hPa 0,4 l/m 21,0 km/h (4 Bft) W 268 0 min 0,000 mm 21 W/m 9,2 C 3,5 C 48,3 km/h (6 Bft) 100 %
04.01.2022 13:20 10,4 C 10,4 C 10,4 C 92 % 994,2 hPa 0,4 l/m 23,4 km/h (4 Bft) W 261 0 min 0,000 mm 11 W/m 9,2 C 2,8 C 53,1 km/h (7 Bft) 100 %
04.01.2022 13:30 10,2 C 10,2 C 10,4 C 92 % 994,4 hPa 0,2 l/m 11,6 km/h (2 Bft) W-SW 253 0 min 0,000 mm 19 W/m 9,0 C 6,9 C 33,8 km/h (5 Bft) 100 %
04.01.2022 13:40 9,7 C 9,7 C 10,2 C 92 % 994,4 hPa 0,2 l/m 9,0 km/h (2 Bft) NW 304 0 min 0,000 mm 21 W/m 8,5 C 7,9 C 20,9 km/h (4 Bft) 100 %
04.01.2022 13:50 9,3 C 9,3 C 9,7 C 93 % 994,6 hPa 0,2 l/m 10,5 km/h (2 Bft) NW 308 0 min 0,000 mm 23 W/m 8,2 C 6,5 C 22,5 km/h (4 Bft) 100 %
04.01.2022 14:00 8,9 C 8,9 C 9,3 C 93 % 994,9 hPa 0,2 l/m 7,1 km/h (2 Bft) NW 316 0 min 0,025 mm 14 W/m 7,8 C 8,4 C 24,1 km/h (4 Bft) 100 %
04.01.2022 14:10 8,3 C 8,3 C 8,9 C 93 % 995,5 hPa 0,2 l/m 6,9 km/h (2 Bft) N-NW 329 0 min 0,000 mm 12 W/m 7,2 C 7,9 C 24,1 km/h (4 Bft) 100 %
04.01.2022 14:20 7,5 C 7,5 C 8,3 C 93 % 995,7 hPa 0,2 l/m 3,5 km/h (1 Bft) N 5 0 min 0,000 mm 12 W/m 6,4 C 7,5 C 20,9 km/h (4 Bft) 100 %
04.01.2022 14:30 7,0 C 7,0 C 7,5 C 93 % 996,0 hPa 0,2 l/m 5,3 km/h (1 Bft) N-NW 342 0 min 0,000 mm 12 W/m 5,9 C 7,0 C 17,7 km/h (3 Bft) 100 %
04.01.2022 14:40 6,7 C 6,7 C 7,0 C 93 % 996,2 hPa 0,4 l/m 3,6 km/h (1 Bft) N-NW 338 0 min 0,000 mm 12 W/m 5,6 C 6,7 C 16,1 km/h (3 Bft) 100 %
04.01.2022 14:50 6,4 C 6,4 C 6,7 C 93 % 996,3 hPa 0,2 l/m 5,3 km/h (1 Bft) N 355 0 min 0,000 mm 21 W/m 5,4 C 6,4 C 20,9 km/h (4 Bft) 100 %
04.01.2022 15:00 6,2 C 6,2 C 6,4 C 93 % 996,3 hPa 0,2 l/m 7,6 km/h (2 Bft) NW 321 0 min 0,000 mm 14 W/m 5,2 C 5,2 C 22,5 km/h (4 Bft) 100 %
04.01.2022 15:10 5,9 C 5,9 C 6,2 C 93 % 996,6 hPa 0,1 l/m 10,7 km/h (2 Bft) N-NW 333 0 min 0,000 mm 9 W/m 4,9 C 2,6 C 25,7 km/h (4 Bft) 100 %
04.01.2022 15:20 5,7 C 5,7 C 5,9 C 93 % 996,8 hPa 0,2 l/m 6,9 km/h (2 Bft) N-NW 348 0 min 0,000 mm 12 W/m 4,7 C 5,3 C 24,1 km/h (4 Bft) 100 %
04.01.2022 15:30 5,6 C 5,6 C 5,7 C 93 % 997,0 hPa 0,1 l/m 6,2 km/h (2 Bft) N 355 0 min 0,000 mm 12 W/m 4,6 C 5,6 C 16,1 km/h (3 Bft) 100 %
04.01.2022 15:40 5,3 C 5,3 C 5,6 C 93 % 997,3 hPa 0,1 l/m 3,4 km/h (1 Bft) N 360 0 min 0,000 mm 9 W/m 4,3 C 5,3 C 16,1 km/h (3 Bft) 100 %
04.01.2022 15:50 5,0 C 5,0 C 5,3 C 93 % 997,5 hPa 0,1 l/m 8,2 km/h (2 Bft) NW 325 0 min 0,000 mm 11 W/m 4,0 C 3,4 C 22,5 km/h (4 Bft) 91 %
04.01.2022 16:00 4,8 C 4,8 C 5,0 C 93 % 997,8 hPa 0,1 l/m 3,3 km/h (1 Bft) N-NW 336 0 min 0,000 mm 9 W/m 3,8 C 4,8 C 14,5 km/h (3 Bft) 100 %
04.01.2022 16:10 4,7 C 4,7 C 4,8 C 93 % 997,8 hPa 0,1 l/m 6,3 km/h (2 Bft) NW 312 0 min 0,000 mm 5 W/m 3,7 C 4,7 C 22,5 km/h (4 Bft) 100 %
04.01.2022 16:20 4,6 C 4,6 C 4,7 C 93 % 998,2 hPa 0,1 l/m 3,5 km/h (1 Bft) NW 325 0 min 0,000 mm 0 W/m 3,6 C 4,6 C 11,3 km/h (2 Bft) 100 %
04.01.2022 16:30 4,6 C 4,6 C 4,6 C 93 % 998,5 hPa 0,1 l/m 0,3 km/h (0 Bft) N-NW 337 0 min 0,000 mm 0 W/m 3,6 C 4,6 C 6,4 km/h (2 Bft) 100 %
04.01.2022 16:40 4,5 C 4,5 C 4,6 C 93 % 998,8 hPa 0,1 l/m 0,0 km/h (0 Bft) N-NW 336 0 min 0,000 mm 0 W/m 3,5 C 4,5 C 0,0 km/h (0 Bft) 100 %
04.01.2022 16:50 4,5 C 4,5 C 4,5 C 92 % 998,7 hPa 0,2 l/m 2,7 km/h (1 Bft) NW 311 0 min 0,000 mm 0 W/m 3,3 C 4,5 C 6,4 km/h (2 Bft) 100 %
04.01.2022 17:00 4,4 C 4,4 C 4,5 C 92 % 998,8 hPa 0,5 l/m 0,7 km/h (0 Bft) NW 311 0 min 0,000 mm 0 W/m 3,2 C 4,4 C 8,0 km/h (2 Bft) 100 %
04.01.2022 17:10 4,4 C 4,4 C 4,4 C 92 % 999,0 hPa 0,4 l/m 0,0 km/h (0 Bft) NW 311 0 min 0,000 mm 0 W/m 3,2 C 4,4 C 0,0 km/h (0 Bft) 100 %
04.01.2022 17:20 4,3 C 4,3 C 4,4 C 92 % 999,1 hPa 0,1 l/m 0,5 km/h (0 Bft) W-NW 289 0 min 0,000 mm 0 W/m 3,1 C 4,3 C 4,8 km/h (1 Bft) 100 %
04.01.2022 17:30 4,3 C 4,3 C 4,4 C 92 % 999,2 hPa 0,2 l/m 0,6 km/h (0 Bft) W 274 0 min 0,000 mm 0 W/m 3,1 C 4,3 C 4,8 km/h (1 Bft) 100 %
04.01.2022 17:40 4,3 C 4,3 C 4,3 C 92 % 999,3 hPa 0,2 l/m 0,0 km/h (0 Bft) W 274 0 min 0,000 mm 0 W/m 3,1 C 4,3 C 0,0 km/h (0 Bft) 91 %
04.01.2022 17:50 4,3 C 4,3 C 4,3 C 92 % 999,5 hPa 0,0 l/m 0,0 km/h (0 Bft) W 274 0 min 0,000 mm 0 W/m 3,1 C 4,3 C 0,0 km/h (0 Bft) 100 %
04.01.2022 18:00 4,3 C 4,3 C 4,3 C 92 % 999,4 hPa 0,0 l/m 0,0 km/h (0 Bft) W 274 0 min 0,000 mm 0 W/m 3,1 C 4,3 C 0,0 km/h (0 Bft) 100 %
04.01.2022 18:10 4,3 C 4,3 C 4,3 C 92 % 999,3 hPa 0,0 l/m 0,0 km/h (0 Bft) W 274 0 min 0,000 mm 0 W/m 3,1 C 4,3 C 0,0 km/h (0 Bft) 100 %
04.01.2022 18:20 4,3 C 4,3 C 4,3 C 92 % 999,5 hPa 0,0 l/m 0,4 km/h (0 Bft) W 274 0 min 0,000 mm 0 W/m 3,1 C 4,3 C 4,8 km/h (1 Bft) 99 %
04.01.2022 18:30 4,3 C 4,3 C 4,3 C 92 % 999,4 hPa 0,1 l/m 0,4 km/h (0 Bft) W 273 0 min 0,000 mm 0 W/m 3,1 C 4,3 C 4,8 km/h (1 Bft) 100 %
04.01.2022 18:40 4,2 C 4,2 C 4,3 C 92 % 999,5 hPa 0,2 l/m 0,0 km/h (0 Bft) W 273 0 min 0,000 mm 0 W/m 3,0 C 4,2 C 0,0 km/h (0 Bft) 100 %
04.01.2022 18:50 4,2 C 4,2 C 4,2 C 92 % 999,5 hPa 0,2 l/m 1,9 km/h (1 Bft) W 273 0 min 0,000 mm 0 W/m 3,0 C 4,2 C 6,4 km/h (2 Bft) 100 %
04.01.2022 19:00 4,2 C 4,2 C 4,3 C 92 % 999,7 hPa 0,4 l/m 0,9 km/h (0 Bft) W 273 0 min 0,000 mm 0 W/m 3,0 C 4,2 C 6,4 km/h (2 Bft) 100 %
04.01.2022 19:10 4,2 C 4,2 C 4,3 C 92 % 999,8 hPa 0,2 l/m 5,0 km/h (1 Bft) S-SW 210 0 min 0,000 mm 0 W/m 3,0 C 4,2 C 14,5 km/h (3 Bft) 100 %
04.01.2022 19:20 4,1 C 4,1 C 4,2 C 92 % 1000,1 hPa 0,2 l/m 5,7 km/h (1 Bft) SW 218 0 min 0,000 mm 0 W/m 2,9 C 4,1 C 16,1 km/h (3 Bft) 100 %
04.01.2022 19:30 3,9 C 3,9 C 4,1 C 92 % 999,8 hPa 0,0 l/m 5,5 km/h (1 Bft) SW 223 0 min 0,000 mm 0 W/m 2,7 C 3,9 C 14,5 km/h (3 Bft) 91 %
04.01.2022 19:40 3,8 C 3,8 C 3,9 C 92 % 999,7 hPa 0,2 l/m 4,8 km/h (1 Bft) SW 219 0 min 0,000 mm 0 W/m 2,6 C 3,8 C 9,7 km/h (2 Bft) 100 %
04.01.2022 19:50 3,7 C 3,7 C 3,8 C 92 % 999,9 hPa 0,0 l/m 4,3 km/h (1 Bft) SW 217 0 min 0,000 mm 0 W/m 2,5 C 3,7 C 9,7 km/h (2 Bft) 99 %
04.01.2022 20:00 3,7 C 3,7 C 3,7 C 92 % 1000,0 hPa 0,2 l/m 3,9 km/h (1 Bft) SW 217 0 min 0,000 mm 0 W/m 2,5 C 3,7 C 8,0 km/h (2 Bft) 100 %
04.01.2022 20:10 3,8 C 3,7 C 3,8 C 92 % 999,9 hPa 0,0 l/m 3,4 km/h (1 Bft) SW 217 0 min 0,000 mm 0 W/m 2,6 C 3,8 C 8,0 km/h (2 Bft) 100 %
04.01.2022 20:20 3,8 C 3,8 C 3,8 C 92 % 999,9 hPa 0,2 l/m 4,0 km/h (1 Bft) S-SW 195 0 min 0,000 mm 0 W/m 2,6 C 3,8 C 8,0 km/h (2 Bft) 100 %
04.01.2022 20:30 3,8 C 3,8 C 3,8 C 92 % 1000,0 hPa 0,0 l/m 4,3 km/h (1 Bft) S 186 0 min 0,000 mm 0 W/m 2,6 C 3,8 C 8,0 km/h (2 Bft) 100 %
04.01.2022 20:40 3,8 C 3,8 C 3,8 C 92 % 1000,1 hPa 0,2 l/m 6,1 km/h (2 Bft) S-SO 153 0 min 0,000 mm 0 W/m 2,6 C 3,8 C 12,9 km/h (3 Bft) 100 %
04.01.2022 20:50 3,8 C 3,8 C 3,8 C 92 % 1000,3 hPa 0,0 l/m 6,3 km/h (2 Bft) S 189 0 min 0,000 mm 0 W/m 2,6 C 3,8 C 16,1 km/h (3 Bft) 99 %
04.01.2022 21:00 3,8 C 3,8 C 3,8 C 92 % 1000,3 hPa 0,2 l/m 7,1 km/h (2 Bft) S-SO 165 0 min 0,000 mm 0 W/m 2,6 C 3,2 C 17,7 km/h (3 Bft) 100 %
04.01.2022 21:10 3,8 C 3,8 C 3,8 C 92 % 1000,2 hPa 0,2 l/m 6,4 km/h (2 Bft) S 180 0 min 0,000 mm 0 W/m 2,6 C 3,8 C 17,7 km/h (3 Bft) 98 %
04.01.2022 21:20 3,8 C 3,8 C 3,8 C 92 % 1000,3 hPa 0,0 l/m 8,0 km/h (2 Bft) S 180 0 min 0,000 mm 0 W/m 2,6 C 2,3 C 19,3 km/h (3 Bft) 97 %
04.01.2022 21:30 3,7 C 3,7 C 3,8 C 92 % 1000,3 hPa 0,2 l/m 9,7 km/h (2 Bft) S 180 0 min 0,000 mm 0 W/m 2,5 C 0,9 C 17,7 km/h (3 Bft) 98 %
04.01.2022 21:40 3,7 C 3,7 C 3,7 C 92 % 1000,3 hPa 0,2 l/m 9,7 km/h (2 Bft) S 180 0 min 0,000 mm 0 W/m 2,5 C 0,9 C 22,5 km/h (4 Bft) 98 %
04.01.2022 21:50 3,6 C 3,6 C 3,7 C 92 % 1000,2 hPa 0,0 l/m 11,3 km/h (2 Bft) S 180 0 min 0,000 mm 0 W/m 2,4 C -0,4 C 19,3 km/h (3 Bft) 98 %
04.01.2022 22:00 3,6 C 3,6 C 3,6 C 92 % 1000,1 hPa 0,0 l/m 8,0 km/h (2 Bft) S-SO 157 0 min 0,000 mm 0 W/m 2,4 C 2,1 C 22,5 km/h (4 Bft) 98 %
04.01.2022 22:10 3,4 C 3,4 C 3,6 C 92 % 1000,2 hPa 0,0 l/m 6,4 km/h (2 Bft) S-SO 157 0 min 0,000 mm 0 W/m 2,2 C 3,4 C 17,7 km/h (3 Bft) 96 %
04.01.2022 22:20 3,4 C 3,4 C 3,5 C 92 % 1000,1 hPa 0,0 l/m 4,8 km/h (1 Bft) S 180 0 min 0,000 mm 0 W/m 2,2 C 3,4 C 17,7 km/h (3 Bft) 98 %
04.01.2022 22:30 3,4 C 3,4 C 3,4 C 92 % 1000,3 hPa 0,2 l/m 8,0 km/h (2 Bft) S 180 0 min 0,000 mm 0 W/m 2,2 C 1,9 C 20,9 km/h (4 Bft) 97 %
04.01.2022 22:40 3,3 C 3,3 C 3,4 C 92 % 1000,2 hPa 0,0 l/m 6,4 km/h (2 Bft) S 180 0 min 0,000 mm 0 W/m 2,1 C 3,3 C 16,1 km/h (3 Bft) 98 %
04.01.2022 22:50 3,3 C 3,3 C 3,4 C 92 % 1000,2 hPa 0,2 l/m 6,4 km/h (2 Bft) S-SW 202 0 min 0,000 mm 0 W/m 2,1 C 3,3 C 17,7 km/h (3 Bft) 98 %
04.01.2022 23:00 3,3 C 3,3 C 3,4 C 92 % 1000,1 hPa 0,0 l/m 4,8 km/h (1 Bft) S 180 0 min 0,000 mm 0 W/m 2,1 C 3,3 C 16,1 km/h (3 Bft) 98 %
04.01.2022 23:10 3,3 C 3,3 C 3,4 C 92 % 1000,1 hPa 0,0 l/m 4,8 km/h (1 Bft) S-SW 202 0 min 0,000 mm 0 W/m 2,1 C 3,3 C 12,9 km/h (3 Bft) 98 %
04.01.2022 23:20 3,3 C 3,3 C 3,3 C 92 % 1000,1 hPa 0,4 l/m 3,2 km/h (1 Bft) S 180 0 min 0,000 mm 0 W/m 2,1 C 3,3 C 11,3 km/h (2 Bft) 98 %
04.01.2022 23:30 3,3 C 3,3 C 3,3 C 92 % 1000,0 hPa 0,0 l/m 3,2 km/h (1 Bft) S 180 0 min 0,000 mm 0 W/m 2,1 C 3,3 C 9,7 km/h (2 Bft) 98 %
04.01.2022 23:40 3,3 C 3,3 C 3,3 C 92 % 1000,2 hPa 0,0 l/m 3,2 km/h (1 Bft) S 180 0 min 0,000 mm 0 W/m 2,1 C 3,3 C 11,3 km/h (2 Bft) 97 %
04.01.2022 23:50 3,3 C 3,3 C 3,3 C 92 % 1000,3 hPa 0,2 l/m 4,8 km/h (1 Bft) S 180 0 min 0,000 mm 0 W/m 2,1 C 3,3 C 16,1 km/h (3 Bft) 89 %
_ Min-Zeit 22:40 22:40 23:20 01:50 12:50 - 16:40 - - - - - 22:40 21:50 16:40 23:50
Minimum _ 3,3 C 3,3 C 3,3 C 91 % 994,0 hPa - 0,0 km/h (0 Bft) - - - - - 2,1 C -0,4 C 0,0 km/h (0 Bft) 89 %
_ Max-Zeit 13:10 13:20 13:10 13:50 00:00 10:40 13:20 - - 00:00 13:00 12:30 13:10 11:10 13:20 00:00
Maximum _ 10,4 C 10,4 C 10,4 C 93 % 1006,3 hPa 1,0 l/m 23,4 km/h
W (4 Bft)
- - 0 min 0,026 mm 28 W/m 9,2 C 9,3 C 53,1 km/h
SW (7 Bft)
100 %
Durchschnitt _ 6,9 C 6,9 C 7,0 C 92 % 999,0 hPa #32,0 l/m 6,0 km/h (2 Bft) S - #0 min. #0,076 mm 15 W/m 5,7 C 6,1 C 17,0 km/h (3 Bft) 99 %
PRIVATE WETTERSTATION BILLIGHEIM-ALLFELD - www.neckar-odenwald-wetter.de - Holger Sonntag